createdAt,value
2024-01-04T00:00:53.658Z,6.44
2024-01-04T00:03:20.252Z,6.58
2024-01-04T00:05:47.466Z,6.60
2024-01-04T00:08:13.892Z,6.60
2024-01-04T00:10:40.427Z,6.55
2024-01-04T00:13:06.999Z,6.42
2024-01-04T00:15:33.549Z,6.60
2024-01-04T00:18:00.274Z,6.21
2024-01-04T00:20:26.834Z,6.34
2024-01-04T00:22:54.377Z,6.34
2024-01-04T00:25:20.977Z,6.43
2024-01-04T00:27:47.559Z,6.34
2024-01-04T00:30:17.246Z,6.32
2024-01-04T00:32:43.971Z,6.34
2024-01-04T00:35:10.454Z,6.14
2024-01-04T00:37:36.864Z,6.31
2024-01-04T00:40:03.414Z,6.11
2024-01-04T00:42:29.843Z,6.27
2024-01-04T00:44:56.354Z,6.35
2024-01-04T00:47:24.004Z,6.35
2024-01-04T00:49:50.560Z,6.23
2024-01-04T00:52:17.044Z,6.28
2024-01-04T00:54:43.914Z,6.35
2024-01-04T00:57:10.558Z,6.28
2024-01-04T00:59:43.183Z,5.94
2024-01-04T01:02:09.664Z,5.98
2024-01-04T01:04:36.227Z,6.11
2024-01-04T01:07:02.835Z,5.97
2024-01-04T01:09:30.578Z,6.02
2024-01-04T01:11:57.113Z,5.97
2024-01-04T01:14:23.845Z,5.95
2024-01-04T01:16:50.305Z,5.89
2024-01-04T01:19:19.906Z,5.79
2024-01-04T01:21:46.519Z,5.77
2024-01-04T01:24:13.108Z,5.88
2024-01-04T01:26:39.616Z,5.86
2024-01-04T01:29:06.031Z,5.90
2024-01-04T01:31:32.534Z,5.90
2024-01-04T01:34:01.831Z,5.79
2024-01-04T01:36:28.365Z,5.91
2024-01-04T01:38:54.989Z,5.93
2024-01-04T01:41:21.560Z,5.85
2024-01-04T01:43:47.928Z,5.94
2024-01-04T01:46:17.394Z,5.90
2024-01-04T01:48:44.295Z,5.87
2024-01-04T01:51:11.697Z,5.83
2024-01-04T01:53:41.459Z,5.76
2024-01-04T01:56:07.973Z,5.94
2024-01-04T01:58:35.346Z,5.85
2024-01-04T02:01:02.213Z,5.92
2024-01-04T02:03:28.768Z,5.74
2024-01-04T02:05:55.507Z,5.80
2024-01-04T02:08:22.276Z,5.88
2024-01-04T02:10:48.877Z,5.75
2024-01-04T02:13:15.537Z,5.82
2024-01-04T02:15:42.155Z,5.63
2024-01-04T02:18:09.079Z,5.92
2024-01-04T02:20:37.957Z,5.75
2024-01-04T02:23:05.550Z,5.83
2024-01-04T02:25:32.190Z,5.70
2024-01-04T02:27:58.619Z,5.81
2024-01-04T02:30:26.560Z,5.86
2024-01-04T02:32:53.249Z,5.73
2024-01-04T02:35:19.766Z,5.85
2024-01-04T02:37:46.248Z,5.68
2024-01-04T02:40:12.954Z,5.63
2024-01-04T02:42:39.619Z,5.63
2024-01-04T02:45:09.345Z,5.84
2024-01-04T02:47:36.108Z,5.62
2024-01-04T02:50:02.711Z,5.69
2024-01-04T02:52:29.135Z,5.79
2024-01-04T02:54:55.627Z,5.52
2024-01-04T02:57:22.295Z,5.56
2024-01-04T02:59:48.825Z,5.52
2024-01-04T03:02:15.247Z,5.63
2024-01-04T03:04:42.068Z,5.64
2024-01-04T03:07:08.967Z,5.60
2024-01-04T03:09:35.613Z,5.71
2024-01-04T03:12:02.577Z,5.71
2024-01-04T03:14:29.164Z,5.71
2024-01-04T03:16:56.923Z,5.60
2024-01-04T03:19:23.645Z,5.81
2024-01-04T03:21:50.174Z,5.62
2024-01-04T03:24:16.710Z,5.74
2024-01-04T03:26:43.413Z,5.67
2024-01-04T03:29:09.939Z,5.52
2024-01-04T03:31:36.533Z,5.68
2024-01-04T03:34:03.138Z,5.71
2024-01-04T03:36:29.748Z,5.68
2024-01-04T03:38:56.274Z,5.32
2024-01-04T03:41:22.899Z,5.38
2024-01-04T03:43:49.339Z,5.40
2024-01-04T03:46:17.944Z,5.23
2024-01-04T03:48:44.726Z,5.20
2024-01-04T03:51:12.081Z,5.11
2024-01-04T03:53:38.716Z,5.15
2024-01-04T03:56:05.569Z,5.09
2024-01-04T03:58:31.966Z,5.16
2024-01-04T04:01:02.528Z,4.93
2024-01-04T04:03:31.300Z,4.95
2024-01-04T04:05:57.986Z,5.12
2024-01-04T04:08:24.530Z,5.10
2024-01-04T04:10:51.018Z,5.16
2024-01-04T04:13:17.544Z,5.22
2024-01-04T04:15:45.621Z,5.17
2024-01-04T04:18:12.280Z,5.04
2024-01-04T04:20:38.890Z,5.16
2024-01-04T04:23:05.344Z,5.20
2024-01-04T04:25:31.786Z,5.05
2024-01-04T04:27:58.206Z,5.21
2024-01-04T04:30:24.830Z,5.24
2024-01-04T04:32:51.575Z,5.23
2024-01-04T04:35:18.318Z,5.14
2024-01-04T04:37:44.800Z,5.33
2024-01-04T04:40:13.153Z,5.15
2024-01-04T04:42:44.289Z,5.15
2024-01-04T04:45:14.074Z,5.17
2024-01-04T04:47:40.695Z,5.16
2024-01-04T04:50:07.858Z,4.97
2024-01-04T04:52:34.422Z,5.05
2024-01-04T04:55:01.288Z,4.95
2024-01-04T04:57:30.405Z,4.79
2024-01-04T05:00:00.077Z,4.78
2024-01-04T05:02:26.633Z,4.94
2024-01-04T05:04:53.174Z,4.84
2024-01-04T05:07:19.589Z,4.85
2024-01-04T05:09:46.032Z,4.83
2024-01-04T05:12:15.561Z,5.03
2024-01-04T05:14:44.882Z,4.96
2024-01-04T05:17:11.475Z,4.79
2024-01-04T05:19:45.440Z,4.81
2024-01-04T05:22:11.979Z,4.92
2024-01-04T05:24:39.532Z,4.87
2024-01-04T05:27:06.154Z,5.16
2024-01-04T05:29:32.681Z,5.09
2024-01-04T05:31:59.428Z,5.03
2024-01-04T05:34:26.182Z,5.02
2024-01-04T05:36:52.728Z,5.21
2024-01-04T05:39:19.279Z,5.27
2024-01-04T05:41:45.890Z,5.14
2024-01-04T05:44:12.481Z,5.21
2024-01-04T05:46:39.067Z,5.21
2024-01-04T05:49:08.319Z,5.19
2024-01-04T05:51:42.282Z,5.29
2024-01-04T05:54:10.153Z,5.28
2024-01-04T05:56:36.816Z,5.23
2024-01-04T05:59:03.390Z,5.31
2024-01-04T06:01:30.126Z,5.24
2024-01-04T06:03:56.654Z,5.28
2024-01-04T06:06:23.307Z,5.18
2024-01-04T06:08:49.951Z,5.23
2024-01-04T06:11:19.045Z,5.21
2024-01-04T06:13:45.490Z,5.04
2024-01-04T06:16:12.064Z,5.12
2024-01-04T06:18:38.954Z,4.93
2024-01-04T06:21:05.838Z,5.11
2024-01-04T06:23:32.642Z,5.02
2024-01-04T06:25:59.237Z,5.06
2024-01-04T06:28:28.914Z,5.05
2024-01-04T06:30:56.024Z,4.96
2024-01-04T06:33:24.075Z,4.92
2024-01-04T06:35:50.801Z,4.78
2024-01-04T06:38:20.447Z,4.88
2024-01-04T06:40:50.095Z,4.72
2024-01-04T06:43:16.703Z,4.76
2024-01-04T06:45:45.988Z,4.87
2024-01-04T06:48:12.729Z,5.02
2024-01-04T06:50:39.565Z,5.05
2024-01-04T06:53:06.413Z,4.75
2024-01-04T06:55:33.023Z,4.75
2024-01-04T06:57:59.603Z,4.76
2024-01-04T07:00:26.245Z,4.97
2024-01-04T07:02:53.102Z,4.91
2024-01-04T07:05:19.860Z,4.70
2024-01-04T07:07:46.453Z,4.78
2024-01-04T07:10:16.262Z,4.83
2024-01-04T07:12:43.788Z,5.04
2024-01-04T07:15:24.324Z,4.80
2024-01-04T07:17:51.198Z,4.74
2024-01-04T07:20:17.965Z,4.80
2024-01-04T07:22:50.444Z,5.06
2024-01-04T07:25:20.345Z,4.81
2024-01-04T07:27:49.911Z,4.88
2024-01-04T07:30:16.795Z,4.81
2024-01-04T07:32:43.561Z,4.79
2024-01-04T07:35:18.386Z,4.77
2024-01-04T07:37:45.273Z,4.79
2024-01-04T07:40:12.889Z,5.02
2024-01-04T07:42:39.773Z,4.81
2024-01-04T07:45:07.617Z,4.95
2024-01-04T07:47:37.435Z,4.89
2024-01-04T07:50:04.937Z,4.91
2024-01-04T07:52:31.769Z,4.91
2024-01-04T07:54:58.399Z,5.07
2024-01-04T07:57:24.968Z,4.93
2024-01-04T07:59:51.648Z,4.81
2024-01-04T08:02:18.254Z,4.99
2024-01-04T08:04:44.839Z,4.77
2024-01-04T08:07:12.428Z,4.94
2024-01-04T08:09:39.878Z,4.81
2024-01-04T08:12:07.397Z,4.89
2024-01-04T08:14:33.916Z,5.00
2024-01-04T08:17:00.442Z,4.95
2024-01-04T08:19:27.236Z,5.14
2024-01-04T08:21:53.850Z,5.02
2024-01-04T08:24:20.658Z,5.03
2024-01-04T08:26:51.825Z,4.89
2024-01-04T08:29:18.350Z,4.89
2024-01-04T08:31:45.102Z,4.84
2024-01-04T08:34:11.786Z,5.03
2024-01-04T08:36:38.533Z,5.09
2024-01-04T08:39:05.102Z,4.93
2024-01-04T08:41:31.589Z,4.88
2024-01-04T08:43:58.160Z,5.17
2024-01-04T08:46:24.685Z,4.97
2024-01-04T08:48:54.556Z,5.07
2024-01-04T08:51:21.239Z,5.07
2024-01-04T08:53:48.097Z,5.19
2024-01-04T08:56:19.636Z,5.11
2024-01-04T08:58:46.187Z,5.18
2024-01-04T09:01:13.015Z,5.16
2024-01-04T09:03:39.584Z,5.27
2024-01-04T09:06:06.138Z,5.31
2024-01-04T09:08:35.527Z,5.40
2024-01-04T09:11:02.177Z,5.26
2024-01-04T09:13:28.612Z,5.15
2024-01-04T09:15:55.064Z,5.14
2024-01-04T09:18:21.737Z,5.47
2024-01-04T09:20:48.319Z,5.45
2024-01-04T09:23:14.865Z,5.50
2024-01-04T09:25:41.367Z,5.36
2024-01-04T09:28:07.792Z,5.23
2024-01-04T09:30:34.594Z,5.17
2024-01-04T09:33:01.469Z,5.34
2024-01-04T09:35:28.184Z,5.19
2024-01-04T09:37:54.839Z,5.22
2024-01-04T09:40:21.425Z,5.39
2024-01-04T09:42:49.302Z,5.47
2024-01-04T09:45:17.276Z,5.40
2024-01-04T09:47:46.029Z,5.49
2024-01-04T09:50:14.583Z,5.27
2024-01-04T09:52:44.773Z,5.39
2024-01-04T09:55:11.392Z,5.41
2024-01-04T09:57:37.915Z,5.43
2024-01-04T10:00:05.682Z,5.62
2024-01-04T10:02:33.759Z,5.79
2024-01-04T10:05:02.548Z,5.84
2024-01-04T10:07:39.673Z,5.67
2024-01-04T10:10:12.956Z,5.73
2024-01-04T10:12:42.238Z,5.57
2024-01-04T10:15:08.936Z,5.81
2024-01-04T10:20:21.524Z,5.41
2024-01-04T10:22:50.787Z,5.79
2024-01-04T10:25:17.380Z,5.68
2024-01-04T10:27:54.751Z,5.73
2024-01-04T10:30:21.480Z,5.91
2024-01-04T10:32:51.534Z,5.95
2024-01-04T10:35:28.326Z,5.88
2024-01-04T10:38:04.225Z,6.09
2024-01-04T10:40:33.013Z,6.26
2024-01-04T10:43:02.579Z,6.16
2024-01-04T10:45:29.505Z,5.96
2024-01-04T10:47:57.031Z,6.12
2024-01-04T10:50:24.482Z,6.14
2024-01-04T10:52:55.043Z,6.12
2024-01-04T10:55:21.907Z,6.34
2024-01-04T10:57:50.110Z,6.07
2024-01-04T11:00:19.768Z,6.23
2024-01-04T11:02:46.700Z,6.29
2024-01-04T11:05:13.891Z,6.05
2024-01-04T11:07:43.120Z,6.12
2024-01-04T11:10:11.992Z,6.14
2024-01-04T11:12:39.953Z,6.12
2024-01-04T11:15:10.275Z,5.90
2024-01-04T11:17:59.267Z,6.17
2024-01-04T11:20:51.857Z,6.18
2024-01-04T11:23:33.053Z,6.36
2024-01-04T11:26:36.974Z,6.50
2024-01-04T11:29:04.143Z,6.51
2024-01-04T11:31:33.803Z,6.42
2024-01-04T11:34:04.859Z,6.43
2024-01-04T11:36:31.491Z,6.70
2024-01-04T11:38:57.926Z,6.29
2024-01-04T11:41:37.636Z,6.48
2024-01-04T11:44:04.663Z,6.31
2024-01-04T11:46:34.707Z,6.23
2024-01-04T11:49:06.039Z,5.90
2024-01-04T11:51:42.065Z,5.90
2024-01-04T11:54:10.285Z,5.91
2024-01-04T11:56:48.297Z,5.86
2024-01-04T11:59:18.294Z,5.79
2024-01-04T12:01:45.709Z,5.95
2024-01-04T12:04:16.514Z,5.99
2024-01-04T12:06:45.589Z,5.83
2024-01-04T12:09:13.306Z,5.92
2024-01-04T12:11:40.839Z,6.32
2024-01-04T12:14:08.143Z,6.17
2024-01-04T12:16:34.835Z,6.42
2024-01-04T12:19:04.503Z,6.44
2024-01-04T12:21:31.440Z,6.36
2024-01-04T12:23:58.546Z,6.38
2024-01-04T12:26:25.946Z,6.52
2024-01-04T12:28:52.694Z,6.47
2024-01-04T12:31:23.515Z,6.84
2024-01-04T12:33:50.301Z,7.07
2024-01-04T12:36:22.033Z,7.03
2024-01-04T12:38:50.387Z,7.21
2024-01-04T12:41:27.650Z,7.08
2024-01-04T12:43:54.406Z,7.03
2024-01-04T12:46:21.580Z,6.94
2024-01-04T12:48:51.444Z,6.75
2024-01-04T12:51:20.890Z,6.58
2024-01-04T12:53:48.870Z,6.59
2024-01-04T12:56:16.989Z,6.30
2024-01-04T12:58:44.442Z,6.15
2024-01-04T13:01:11.135Z,6.23
2024-01-04T13:03:38.264Z,6.22
2024-01-04T13:06:05.739Z,6.14
2024-01-04T13:08:32.568Z,6.18
2024-01-04T13:10:59.093Z,6.24
2024-01-04T13:13:27.192Z,5.95
2024-01-04T13:15:54.808Z,5.84
2024-01-04T13:18:22.205Z,5.91
2024-01-04T13:20:49.104Z,5.90
2024-01-04T13:23:15.985Z,5.96
2024-01-04T13:26:01.286Z,5.79
2024-01-04T13:28:27.803Z,5.69
2024-01-04T13:30:56.186Z,5.67
2024-01-04T13:33:23.085Z,5.88
2024-01-04T13:35:49.873Z,5.75
2024-01-04T13:38:16.432Z,5.78
2024-01-04T13:40:42.987Z,5.84
2024-01-04T13:43:09.535Z,5.90
2024-01-04T13:45:36.028Z,6.02
2024-01-04T13:48:02.688Z,5.88
2024-01-04T13:50:29.130Z,5.77
2024-01-04T13:52:55.590Z,5.79
2024-01-04T13:55:22.181Z,5.84
2024-01-04T13:57:53.951Z,5.87
2024-01-04T14:00:21.909Z,5.65
2024-01-04T14:02:48.539Z,5.76
2024-01-04T14:05:15.374Z,5.55
2024-01-04T14:07:42.158Z,5.82
2024-01-04T14:10:11.272Z,5.70
2024-01-04T14:12:37.747Z,5.70
2024-01-04T14:15:04.760Z,5.72
2024-01-04T14:17:31.389Z,5.61
2024-01-04T14:19:58.081Z,5.67
2024-01-04T14:22:24.556Z,5.52
2024-01-04T14:24:51.208Z,5.49
2024-01-04T14:27:17.951Z,5.59
2024-01-04T14:29:44.554Z,5.69
2024-01-04T14:32:11.099Z,5.61
2024-01-04T14:34:37.828Z,5.39
2024-01-04T14:37:05.773Z,5.59
2024-01-04T14:39:32.301Z,5.45
2024-01-04T14:41:58.987Z,5.37
2024-01-04T14:44:25.477Z,5.44
2024-01-04T14:46:51.921Z,5.26
2024-01-04T14:49:18.764Z,5.43
2024-01-04T14:51:45.614Z,5.20
2024-01-04T14:54:14.862Z,5.28
2024-01-04T14:56:44.696Z,5.18
2024-01-04T14:59:14.323Z,5.22
2024-01-04T15:01:40.908Z,5.09
2024-01-04T15:06:47.720Z,5.29
2024-01-04T15:09:14.190Z,5.23
2024-01-04T15:11:42.189Z,5.26
2024-01-04T15:14:08.857Z,5.06
2024-01-04T15:16:35.435Z,5.04
2024-01-04T15:19:02.167Z,5.20
2024-01-04T15:21:28.927Z,5.21
2024-01-04T15:23:55.393Z,5.18
2024-01-04T15:26:22.205Z,5.08
2024-01-04T15:28:48.762Z,5.13
2024-01-04T15:31:15.546Z,5.17
2024-01-04T15:33:42.339Z,5.09
2024-01-04T15:36:08.945Z,5.00
2024-01-04T15:38:36.074Z,4.91
2024-01-04T15:41:02.647Z,4.96
2024-01-04T15:43:29.244Z,4.85
2024-01-04T15:45:55.932Z,5.00
2024-01-04T15:48:22.680Z,4.88
2024-01-04T15:50:52.282Z,4.87
2024-01-04T15:53:18.774Z,4.96
2024-01-04T15:55:45.312Z,5.02
2024-01-04T15:58:11.846Z,5.07
2024-01-04T16:00:38.546Z,4.98
2024-01-04T16:03:05.268Z,5.03
2024-01-04T16:05:31.846Z,5.02
2024-01-04T16:07:58.513Z,5.01
2024-01-04T16:10:25.062Z,4.99
2024-01-04T16:12:51.678Z,4.93
2024-01-04T16:15:18.408Z,4.97
2024-01-04T16:17:44.972Z,5.03
2024-01-04T16:20:22.318Z,5.09
2024-01-04T16:22:57.173Z,5.09
2024-01-04T16:25:23.736Z,5.02
2024-01-04T16:27:50.333Z,5.01
2024-01-04T16:30:17.109Z,4.97
2024-01-04T16:32:44.082Z,4.95
2024-01-04T16:35:12.096Z,4.78
2024-01-04T16:37:38.587Z,4.83
2024-01-04T16:40:05.689Z,4.81
2024-01-04T16:42:32.249Z,4.73
2024-01-04T16:45:00.476Z,4.86
2024-01-04T16:47:27.055Z,4.81
2024-01-04T16:50:02.636Z,4.81
2024-01-04T16:52:32.176Z,4.71
2024-01-04T16:54:58.776Z,4.89
2024-01-04T16:57:25.409Z,4.53
2024-01-04T16:59:56.556Z,4.79
2024-01-04T17:02:23.067Z,4.79
2024-01-04T17:04:52.078Z,4.68
2024-01-04T17:07:18.710Z,4.71
2024-01-04T17:09:45.284Z,4.59
2024-01-04T17:12:12.181Z,4.60
2024-01-04T17:14:39.044Z,4.58
2024-01-04T17:17:08.525Z,4.55
2024-01-04T17:19:35.143Z,4.82
2024-01-04T17:22:01.572Z,4.74
2024-01-04T17:24:28.135Z,4.79
2024-01-04T17:26:59.956Z,4.64
2024-01-04T17:29:26.452Z,4.71
2024-01-04T17:31:55.706Z,4.61
2024-01-04T17:34:22.508Z,4.68
2024-01-04T17:36:49.342Z,4.68
2024-01-04T17:39:16.465Z,4.71
2024-01-04T17:41:44.199Z,4.61
2024-01-04T17:44:11.999Z,4.64
2024-01-04T17:46:38.466Z,4.65
2024-01-04T17:49:05.176Z,4.49
2024-01-04T17:51:31.739Z,4.74
2024-01-04T17:53:58.323Z,4.55
2024-01-04T17:56:24.768Z,4.69
2024-01-04T17:58:51.263Z,4.65
2024-01-04T18:01:18.001Z,4.79
2024-01-04T18:03:45.425Z,4.77
2024-01-04T18:06:15.143Z,4.64
2024-01-04T18:08:41.637Z,4.55
2024-01-04T18:11:08.989Z,4.72
2024-01-04T18:13:35.646Z,4.73
2024-01-04T18:16:02.101Z,4.76
2024-01-04T18:18:28.878Z,4.65
2024-01-04T18:20:55.689Z,4.81
2024-01-04T18:23:22.303Z,4.73
2024-01-04T18:25:48.874Z,4.66
2024-01-04T18:28:15.554Z,4.66
2024-01-04T18:30:42.212Z,4.47
2024-01-04T18:33:09.000Z,4.57
2024-01-04T18:35:38.146Z,4.77
2024-01-04T18:38:07.388Z,4.79
2024-01-04T18:40:33.974Z,4.55
2024-01-04T18:43:00.411Z,4.80
2024-01-04T18:45:27.107Z,4.74
2024-01-04T18:47:54.062Z,4.77
2024-01-04T18:50:30.909Z,4.71
2024-01-04T18:52:57.545Z,4.74
2024-01-04T18:55:24.037Z,4.63
2024-01-04T18:57:50.557Z,4.57
2024-01-04T19:00:17.303Z,4.62
2024-01-04T19:02:45.036Z,4.52
2024-01-04T19:05:11.858Z,4.48
2024-01-04T19:07:38.509Z,4.52
2024-01-04T19:10:06.368Z,4.67
2024-01-04T19:12:32.979Z,4.76
2024-01-04T19:15:04.063Z,4.68
2024-01-04T19:17:35.296Z,4.86
2024-01-04T19:20:02.065Z,4.74
2024-01-04T19:22:28.757Z,4.70
2024-01-04T19:24:57.856Z,4.70
2024-01-04T19:27:24.498Z,4.86
2024-01-04T19:29:51.080Z,4.75
2024-01-04T19:32:17.575Z,4.91
2024-01-04T19:34:44.010Z,4.88
2024-01-04T19:37:10.600Z,4.74
2024-01-04T19:39:37.237Z,4.73
2024-01-04T19:42:06.002Z,4.56
2024-01-04T19:44:32.455Z,4.56
2024-01-04T19:47:00.642Z,4.75
2024-01-04T19:49:27.187Z,4.66
2024-01-04T19:51:54.009Z,4.56
2024-01-04T19:54:22.004Z,4.59
2024-01-04T19:56:48.567Z,4.60
2024-01-04T19:59:17.637Z,4.54
2024-01-04T20:01:44.359Z,4.59
2024-01-04T20:04:11.104Z,4.59
2024-01-04T20:06:40.614Z,4.82
2024-01-04T20:09:07.289Z,4.68
2024-01-04T20:11:33.821Z,4.88
2024-01-04T20:14:00.219Z,4.89
2024-01-04T20:16:28.103Z,4.65
2024-01-04T20:18:55.681Z,4.90
2024-01-04T20:21:22.422Z,4.84
2024-01-04T20:23:50.157Z,4.65
2024-01-04T20:26:16.639Z,4.79
2024-01-04T20:28:43.172Z,4.68
2024-01-04T20:31:12.548Z,4.60
2024-01-04T20:33:39.524Z,4.81
2024-01-04T20:36:06.540Z,4.85
2024-01-04T20:38:33.093Z,4.85
2024-01-04T20:41:01.335Z,4.77
2024-01-04T20:43:28.101Z,4.77
2024-01-04T20:46:00.712Z,4.73
2024-01-04T20:48:27.271Z,4.70
2024-01-04T20:50:54.212Z,4.79
2024-01-04T20:53:20.723Z,4.67
2024-01-04T20:55:47.270Z,4.46
2024-01-04T20:58:15.212Z,4.63
2024-01-04T21:00:41.802Z,4.77
2024-01-04T21:03:08.598Z,4.62
2024-01-04T21:05:35.319Z,4.81
2024-01-04T21:08:01.883Z,4.62
2024-01-04T21:10:28.436Z,4.68
2024-01-04T21:12:54.871Z,4.65
2024-01-04T21:15:21.474Z,4.67
2024-01-04T21:17:51.078Z,4.63
2024-01-04T21:20:25.822Z,4.67
2024-01-04T21:22:58.488Z,4.54
2024-01-04T21:25:28.039Z,4.68
2024-01-04T21:28:07.743Z,4.47
2024-01-04T21:30:38.621Z,4.60
2024-01-04T21:33:06.758Z,4.54
2024-01-04T21:35:33.422Z,4.85
2024-01-04T21:37:59.857Z,4.71
2024-01-04T21:40:26.312Z,4.60
2024-01-04T21:42:52.747Z,4.84
2024-01-04T21:45:19.479Z,4.87
2024-01-04T21:47:46.138Z,4.65
2024-01-04T21:50:12.986Z,4.60
2024-01-04T21:52:40.067Z,4.59
2024-01-04T21:55:06.959Z,4.63
2024-01-04T21:57:33.505Z,4.84
2024-01-04T22:00:00.089Z,4.73
2024-01-04T22:02:26.607Z,4.78
2024-01-04T22:04:53.182Z,4.69
2024-01-04T22:07:20.002Z,4.82
2024-01-04T22:09:46.732Z,4.63
2024-01-04T22:12:16.222Z,4.68
2024-01-04T22:14:45.206Z,4.65
2024-01-04T22:17:17.226Z,4.87
2024-01-04T22:19:44.154Z,4.63
2024-01-04T22:22:10.658Z,4.60
2024-01-04T22:24:37.240Z,4.94
2024-01-04T22:27:04.346Z,4.88
2024-01-04T22:29:30.871Z,4.83
2024-01-04T22:32:04.839Z,4.89
2024-01-04T22:34:37.404Z,4.68
2024-01-04T22:37:06.762Z,4.92
2024-01-04T22:39:33.438Z,4.87
2024-01-04T22:42:00.025Z,5.07
2024-01-04T22:44:29.126Z,5.04
2024-01-04T22:47:00.374Z,4.87
2024-01-04T22:49:27.034Z,5.00
2024-01-04T22:51:53.574Z,5.11
2024-01-04T22:54:21.246Z,4.97
2024-01-04T22:56:47.839Z,5.04
2024-01-04T22:59:14.450Z,5.04
2024-01-04T23:01:40.943Z,5.01
2024-01-04T23:04:07.396Z,5.03
2024-01-04T23:06:34.025Z,5.01
2024-01-04T23:09:00.567Z,4.93
2024-01-04T23:11:27.186Z,4.88
2024-01-04T23:13:53.758Z,4.94
2024-01-04T23:16:20.242Z,5.06
2024-01-04T23:18:49.703Z,4.98
2024-01-04T23:21:16.496Z,5.15
2024-01-04T23:23:43.148Z,5.09
2024-01-04T23:26:09.850Z,4.93
2024-01-04T23:28:36.324Z,4.90
2024-01-04T23:31:02.848Z,5.07
2024-01-04T23:33:36.891Z,5.09
2024-01-04T23:36:12.149Z,5.01
2024-01-04T23:38:38.879Z,5.05
2024-01-04T23:41:05.449Z,5.03
2024-01-04T23:43:32.246Z,4.87
2024-01-04T23:45:58.833Z,4.94
2024-01-04T23:48:25.429Z,4.88
2024-01-04T23:50:52.153Z,4.75
2024-01-04T23:53:18.617Z,4.87
2024-01-04T23:55:45.041Z,4.78
2024-01-04T23:58:11.509Z,4.68
